createdAt,value
2023-04-25T00:00:31.561Z,4.18
2023-04-25T00:03:00.609Z,4.15
2023-04-25T00:05:30.533Z,5.35
2023-04-25T00:08:00.009Z,3.35
2023-04-25T00:10:27.793Z,3.28
2023-04-25T00:12:55.402Z,4.15
2023-04-25T00:15:23.188Z,6.50
2023-04-25T00:17:50.916Z,4.10
2023-04-25T00:20:18.717Z,3.35
2023-04-25T00:22:46.456Z,3.20
2023-04-25T00:25:15.497Z,3.38
2023-04-25T00:27:43.725Z,5.65
2023-04-25T00:30:12.585Z,4.00
2023-04-25T00:32:40.257Z,5.82
2023-04-25T00:35:08.284Z,5.38
2023-04-25T00:37:36.009Z,4.55
2023-04-25T00:40:04.963Z,5.88
2023-04-25T00:42:34.067Z,4.68
2023-04-25T00:45:02.874Z,5.82
2023-04-25T00:47:31.058Z,3.55
2023-04-25T00:49:58.781Z,4.10
2023-04-25T00:52:26.591Z,4.28
2023-04-25T00:54:54.300Z,4.88
2023-04-25T00:57:22.100Z,5.80
2023-04-25T00:59:53.814Z,3.38
2023-04-25T01:02:22.831Z,6.55
2023-04-25T01:04:50.962Z,5.20
2023-04-25T01:07:18.764Z,3.70
2023-04-25T01:09:46.423Z,3.35
2023-04-25T01:12:15.580Z,4.38
2023-04-25T01:14:43.307Z,3.90
2023-04-25T01:17:12.665Z,3.47
2023-04-25T01:19:40.409Z,3.42
2023-04-25T01:22:11.239Z,6.05
2023-04-25T01:24:39.568Z,5.53
2023-04-25T01:27:07.448Z,6.20
2023-04-25T01:29:36.686Z,6.20
2023-04-25T01:32:05.109Z,4.90
2023-04-25T01:34:32.852Z,3.42
2023-04-25T01:37:02.970Z,6.10
2023-04-25T01:39:32.278Z,4.05
2023-04-25T01:42:02.499Z,4.63
2023-04-25T01:44:30.326Z,4.20
2023-04-25T01:46:58.109Z,3.30
2023-04-25T01:49:25.872Z,3.50
2023-04-25T01:51:53.560Z,5.97
2023-04-25T01:54:21.303Z,3.80
2023-04-25T01:56:53.729Z,6.15
2023-04-25T01:59:22.761Z,5.78
2023-04-25T02:01:50.532Z,4.07
2023-04-25T02:04:18.378Z,3.38
2023-04-25T02:06:46.216Z,3.88
2023-04-25T02:09:13.884Z,4.20
2023-04-25T02:11:41.759Z,3.97
2023-04-25T02:14:10.789Z,5.18
2023-04-25T02:16:40.742Z,5.75
2023-04-25T02:19:08.610Z,6.05
2023-04-25T02:21:36.721Z,5.25
2023-04-25T02:24:04.867Z,5.57
2023-04-25T02:26:32.539Z,5.43
2023-04-25T02:29:00.824Z,4.03
2023-04-25T02:31:29.954Z,4.80
2023-04-25T02:33:57.713Z,3.72
2023-04-25T02:36:25.430Z,5.40
2023-04-25T02:38:53.084Z,7.20
2023-04-25T02:41:21.797Z,3.97
2023-04-25T02:43:49.614Z,3.70
2023-04-25T02:46:22.923Z,4.20
2023-04-25T02:48:57.960Z,4.53
2023-04-25T02:51:25.909Z,5.68
2023-04-25T02:53:53.644Z,7.97
2023-04-25T02:56:21.401Z,4.00
2023-04-25T02:58:49.383Z,4.45
2023-04-25T03:01:17.057Z,6.13
2023-04-25T03:03:44.846Z,3.50
2023-04-25T03:06:14.000Z,5.22
2023-04-25T03:08:41.620Z,5.60
2023-04-25T03:11:09.310Z,4.80
2023-04-25T03:13:36.999Z,5.57
2023-04-25T03:16:05.017Z,4.95
2023-04-25T03:18:32.745Z,6.93
2023-04-25T03:21:00.623Z,7.43
2023-04-25T03:23:29.766Z,4.32
2023-04-25T03:25:57.418Z,5.13
2023-04-25T03:28:25.652Z,5.75
2023-04-25T03:30:53.355Z,5.60
2023-04-25T03:33:21.017Z,5.38
2023-04-25T03:35:48.672Z,3.95
2023-04-25T03:38:16.306Z,7.38
2023-04-25T03:40:45.379Z,7.68
2023-04-25T03:43:13.203Z,5.80
2023-04-25T03:45:40.980Z,7.20
2023-04-25T03:48:08.730Z,5.80
2023-04-25T03:50:37.147Z,4.70
2023-04-25T03:53:04.850Z,5.72
2023-04-25T03:55:32.754Z,7.07
2023-04-25T03:58:01.773Z,6.20
2023-04-25T04:00:29.461Z,4.60
2023-04-25T04:02:57.258Z,4.30
2023-04-25T04:05:25.413Z,7.90
2023-04-25T04:07:53.272Z,4.15
2023-04-25T04:10:21.258Z,3.15
2023-04-25T04:12:49.045Z,5.82
2023-04-25T04:15:18.083Z,4.63
2023-04-25T04:17:46.416Z,5.00
2023-04-25T04:20:14.247Z,4.63
2023-04-25T04:22:41.970Z,3.92
2023-04-25T04:25:11.073Z,3.55
2023-04-25T04:27:38.780Z,2.85
2023-04-25T04:30:08.439Z,3.35
2023-04-25T04:32:38.721Z,4.72
2023-04-25T04:35:07.519Z,5.05
2023-04-25T04:37:35.268Z,3.35
2023-04-25T04:40:06.836Z,4.35
2023-04-25T04:42:34.628Z,4.10
2023-04-25T04:45:02.499Z,3.80
2023-04-25T04:47:33.378Z,4.55
2023-04-25T04:50:03.740Z,6.32
2023-04-25T04:52:31.587Z,2.97
2023-04-25T04:54:59.233Z,6.32
2023-04-25T04:57:27.607Z,2.65
2023-04-25T04:59:55.387Z,4.68
2023-04-25T05:02:23.185Z,4.80
2023-04-25T05:04:52.652Z,4.88
2023-04-25T05:07:22.023Z,5.25
2023-04-25T05:09:49.717Z,4.90
2023-04-25T05:12:17.434Z,4.25
2023-04-25T05:14:45.140Z,6.82
2023-04-25T05:17:12.844Z,4.05
2023-04-25T05:19:41.417Z,5.55
2023-04-25T05:22:09.359Z,4.25
2023-04-25T05:24:38.409Z,5.75
2023-04-25T05:27:06.613Z,5.68
2023-04-25T05:29:34.398Z,4.10
2023-04-25T05:32:02.105Z,7.50
2023-04-25T05:34:29.788Z,6.07
2023-04-25T05:36:57.501Z,5.88
2023-04-25T05:39:25.166Z,6.50
2023-04-25T05:41:54.231Z,7.20
2023-04-25T05:44:21.960Z,7.10
2023-04-25T05:46:49.740Z,4.78
2023-04-25T05:49:19.472Z,9.35
2023-04-25T05:51:47.508Z,6.60
2023-04-25T05:54:15.179Z,6.03
2023-04-25T05:56:42.918Z,5.68
2023-04-25T05:59:11.985Z,8.70
2023-04-25T06:01:39.650Z,6.63
2023-04-25T06:04:07.488Z,7.10
2023-04-25T06:06:35.266Z,4.47
2023-04-25T06:09:02.934Z,7.72
2023-04-25T06:11:30.840Z,4.55
2023-04-25T06:13:58.594Z,6.43
2023-04-25T06:16:28.059Z,7.50
2023-04-25T06:18:55.725Z,10.55
2023-04-25T06:21:23.423Z,7.85
2023-04-25T06:23:51.386Z,8.93
2023-04-25T06:26:20.328Z,8.73
2023-04-25T06:28:48.036Z,6.93
2023-04-25T06:31:16.236Z,6.25
2023-04-25T06:33:45.510Z,8.77
2023-04-25T06:36:13.189Z,4.95
2023-04-25T06:38:40.869Z,7.75
2023-04-25T06:41:08.503Z,7.45
2023-04-25T06:43:36.186Z,5.05
2023-04-25T06:46:03.900Z,6.55
2023-04-25T06:48:31.599Z,6.90
2023-04-25T06:51:00.634Z,7.63
2023-04-25T06:53:28.332Z,9.80
2023-04-25T06:55:56.064Z,5.85
2023-04-25T06:58:23.732Z,5.90
2023-04-25T07:00:51.477Z,9.32
2023-04-25T07:03:19.282Z,8.68
2023-04-25T07:05:47.784Z,5.90
2023-04-25T07:08:16.752Z,6.53
2023-04-25T07:10:44.677Z,12.80
2023-04-25T07:13:12.323Z,6.45
2023-04-25T07:15:40.113Z,7.10
2023-04-25T07:18:07.833Z,6.65
2023-04-25T07:20:35.651Z,10.00
2023-04-25T07:23:03.428Z,11.88
2023-04-25T07:25:32.596Z,9.45
2023-04-25T07:28:00.274Z,9.32
2023-04-25T07:30:28.446Z,7.60
2023-04-25T07:32:56.423Z,10.38
2023-04-25T07:35:24.382Z,8.48
2023-04-25T07:37:52.115Z,5.75
2023-04-25T07:40:19.800Z,6.32
2023-04-25T07:42:48.895Z,10.23
2023-04-25T07:45:17.135Z,8.45
2023-04-25T07:47:44.834Z,7.57
2023-04-25T07:50:13.024Z,5.85
2023-04-25T07:52:40.713Z,9.48
2023-04-25T07:55:08.955Z,6.30
2023-04-25T07:57:36.661Z,8.15
2023-04-25T08:00:10.462Z,5.50
2023-04-25T08:02:38.263Z,5.80
2023-04-25T08:05:09.132Z,8.35
2023-04-25T08:07:37.064Z,6.30
2023-04-25T08:10:05.652Z,10.48
2023-04-25T08:12:33.379Z,5.43
2023-04-25T08:15:01.038Z,4.95
2023-04-25T08:17:30.155Z,6.60
2023-04-25T08:19:58.002Z,4.55
2023-04-25T08:22:25.733Z,8.68
2023-04-25T08:24:53.419Z,5.50
2023-04-25T08:27:21.893Z,6.78
2023-04-25T08:29:50.067Z,5.10
2023-04-25T08:32:17.791Z,4.57
2023-04-25T08:34:48.110Z,7.80
2023-04-25T08:37:15.846Z,5.50
2023-04-25T08:39:43.611Z,5.00
2023-04-25T08:42:14.090Z,7.13
2023-04-25T08:44:41.766Z,6.53
2023-04-25T08:47:09.526Z,6.78
2023-04-25T08:49:38.020Z,6.63
2023-04-25T08:52:07.704Z,4.50
2023-04-25T08:54:37.949Z,7.18
2023-04-25T08:57:07.765Z,4.78
2023-04-25T08:59:37.230Z,4.45
2023-04-25T09:02:06.317Z,5.15
2023-04-25T09:04:34.532Z,5.10
2023-04-25T09:07:02.211Z,4.68
2023-04-25T09:09:31.568Z,3.28
2023-04-25T09:12:00.446Z,4.22
2023-04-25T09:14:28.964Z,3.63
2023-04-25T09:17:02.055Z,3.67
2023-04-25T09:22:03.987Z,3.78
2023-04-25T09:24:37.979Z,5.88
2023-04-25T09:27:06.946Z,3.53
2023-04-25T09:29:35.990Z,4.78
2023-04-25T09:32:14.963Z,6.85
2023-04-25T09:34:43.772Z,4.75
2023-04-25T09:37:12.108Z,4.00
2023-04-25T09:39:41.857Z,5.43
2023-04-25T09:42:11.552Z,5.63
2023-04-25T09:44:39.857Z,5.03
2023-04-25T09:47:11.965Z,3.38
2023-04-25T09:49:42.226Z,5.40
2023-04-25T09:52:10.221Z,3.13
2023-04-25T09:54:37.947Z,5.80
2023-04-25T09:57:15.206Z,3.85
2023-04-25T09:59:46.888Z,4.18
2023-04-25T10:02:16.821Z,5.68
2023-04-25T10:04:49.388Z,5.20
2023-04-25T10:07:17.337Z,5.78
2023-04-25T10:09:46.648Z,6.05
2023-04-25T10:12:16.194Z,3.10
2023-04-25T10:14:44.627Z,4.18
2023-04-25T10:17:13.038Z,6.40
2023-04-25T10:19:41.866Z,5.10
2023-04-25T10:22:16.576Z,3.20
2023-04-25T10:24:45.444Z,4.83
2023-04-25T10:27:13.227Z,5.00
2023-04-25T10:29:44.301Z,4.40
2023-04-25T10:32:12.227Z,6.43
2023-04-25T10:34:41.946Z,4.55
2023-04-25T10:37:13.262Z,3.00
2023-04-25T10:39:42.650Z,5.25
2023-04-25T10:42:10.711Z,4.45
2023-04-25T10:44:40.310Z,3.00
2023-04-25T10:47:11.552Z,4.68
2023-04-25T10:49:40.372Z,2.88
2023-04-25T10:52:26.896Z,4.82
2023-04-25T10:54:56.053Z,4.85
2023-04-25T10:57:38.076Z,2.10
2023-04-25T11:00:12.658Z,2.30
2023-04-25T11:02:46.354Z,2.87
2023-04-25T11:05:23.340Z,2.88
2023-04-25T11:08:03.896Z,4.03
2023-04-25T11:10:33.866Z,5.63
2023-04-25T11:13:01.588Z,4.25
2023-04-25T11:15:29.769Z,5.80
2023-04-25T11:17:58.924Z,2.22
2023-04-25T11:20:29.626Z,5.53
2023-04-25T11:22:59.630Z,3.90
2023-04-25T11:25:28.083Z,5.10
2023-04-25T11:27:58.170Z,3.42
2023-04-25T11:30:27.660Z,2.42
2023-04-25T11:32:55.889Z,2.70
2023-04-25T11:35:26.618Z,4.70
2023-04-25T11:37:54.468Z,4.00
2023-04-25T11:40:22.247Z,2.85
2023-04-25T11:42:50.029Z,3.35
2023-04-25T11:45:19.639Z,4.32
2023-04-25T11:47:47.589Z,3.45
2023-04-25T11:50:15.674Z,6.03
2023-04-25T11:52:46.577Z,4.35
2023-04-25T11:55:16.193Z,3.35
2023-04-25T11:57:45.488Z,4.75
2023-04-25T12:00:18.080Z,4.10
2023-04-25T12:02:48.077Z,3.90
2023-04-25T12:05:30.978Z,2.88
2023-04-25T12:08:11.715Z,4.20
2023-04-25T12:10:40.604Z,2.50
2023-04-25T12:13:22.054Z,2.67
2023-04-25T12:15:49.928Z,2.70
2023-04-25T12:18:21.759Z,3.60
2023-04-25T12:20:49.472Z,4.18
2023-04-25T12:23:18.504Z,4.05
2023-04-25T12:25:48.082Z,2.40
2023-04-25T12:28:17.697Z,3.15
2023-04-25T12:30:59.434Z,4.20
2023-04-25T12:33:28.561Z,3.88
2023-04-25T12:35:57.053Z,2.58
2023-04-25T12:38:27.484Z,1.98
2023-04-25T12:40:55.545Z,2.65
2023-04-25T12:43:23.729Z,4.85
2023-04-25T12:45:52.136Z,2.95
2023-04-25T12:48:20.375Z,4.38
2023-04-25T12:50:49.989Z,7.07
2023-04-25T12:53:17.892Z,4.00
2023-04-25T12:55:47.935Z,2.28
2023-04-25T12:58:15.730Z,3.40
2023-04-25T13:00:44.105Z,2.63
2023-04-25T13:03:13.434Z,2.00
2023-04-25T13:05:42.149Z,3.88
2023-04-25T13:08:09.970Z,7.32
2023-04-25T13:10:39.412Z,1.27
2023-04-25T13:13:08.434Z,1.30
2023-04-25T13:15:36.344Z,1.92
2023-04-25T13:18:06.495Z,18.90
2023-04-25T13:20:34.305Z,2.60
2023-04-25T13:23:02.937Z,2.72
2023-04-25T13:25:30.863Z,2.80
2023-04-25T13:27:58.485Z,2.03
2023-04-25T13:30:27.583Z,2.08
2023-04-25T13:32:57.284Z,2.45
2023-04-25T13:35:25.548Z,1.83
2023-04-25T13:37:53.303Z,1.65
2023-04-25T13:40:22.830Z,2.10
2023-04-25T13:42:52.013Z,3.42
2023-04-25T13:45:19.988Z,2.10
2023-04-25T13:47:49.191Z,2.22
2023-04-25T13:50:17.139Z,3.75
2023-04-25T13:52:45.976Z,2.90
2023-04-25T13:55:13.806Z,3.22
2023-04-25T13:57:41.565Z,2.60
2023-04-25T14:00:10.883Z,1.50
2023-04-25T14:02:38.721Z,4.18
2023-04-25T14:05:08.934Z,4.55
2023-04-25T14:07:36.946Z,3.60
2023-04-25T14:10:06.691Z,1.70
2023-04-25T14:12:34.995Z,1.83
2023-04-25T14:15:02.742Z,2.58
2023-04-25T14:17:30.922Z,2.58
2023-04-25T14:19:58.606Z,1.55
2023-04-25T14:22:27.899Z,1.70
2023-04-25T14:24:55.665Z,1.60
2023-04-25T14:27:23.338Z,1.50
2023-04-25T14:29:51.327Z,4.30
2023-04-25T14:32:19.229Z,1.60
2023-04-25T14:34:46.901Z,2.30
2023-04-25T14:37:14.605Z,1.83
2023-04-25T14:39:44.814Z,2.30
2023-04-25T14:42:14.153Z,2.58
2023-04-25T14:44:41.828Z,3.20
2023-04-25T14:47:09.589Z,2.40
2023-04-25T14:49:37.435Z,3.33
2023-04-25T14:52:05.378Z,2.13
2023-04-25T14:54:33.292Z,1.65
2023-04-25T14:57:03.220Z,2.25
2023-04-25T14:59:31.036Z,1.83
2023-04-25T15:01:59.872Z,1.73
2023-04-25T15:04:27.958Z,2.45
2023-04-25T15:06:56.159Z,1.30
2023-04-25T15:09:24.958Z,1.08
2023-04-25T15:11:52.952Z,3.58
2023-04-25T15:14:21.958Z,0.90
2023-04-25T15:16:49.733Z,1.30
2023-04-25T15:19:17.427Z,1.25
2023-04-25T15:21:45.236Z,1.45
2023-04-25T15:24:13.112Z,1.30
2023-04-25T15:26:40.957Z,1.42
2023-04-25T15:29:08.765Z,2.38
2023-04-25T15:31:37.806Z,1.60
2023-04-25T15:34:06.206Z,1.50
2023-04-25T15:36:33.914Z,1.40
2023-04-25T15:39:01.740Z,1.50
2023-04-25T15:41:30.320Z,11.07
2023-04-25T15:43:57.988Z,1.70
2023-04-25T15:46:25.742Z,1.80
2023-04-25T15:48:54.918Z,1.45
2023-04-25T15:51:22.702Z,3.58
2023-04-25T15:53:51.076Z,1.95
2023-04-25T15:56:18.866Z,2.88
2023-04-25T15:58:46.568Z,2.20
2023-04-25T16:01:15.004Z,3.33
2023-04-25T16:03:42.880Z,2.88
2023-04-25T16:06:12.034Z,3.00
2023-04-25T16:08:40.002Z,1.88
2023-04-25T16:11:08.128Z,2.60
2023-04-25T16:13:36.204Z,2.70
2023-04-25T16:16:03.917Z,2.30
2023-04-25T16:18:31.640Z,2.78
2023-04-25T16:20:59.301Z,2.70
2023-04-25T16:23:28.346Z,3.00
2023-04-25T16:25:56.121Z,2.30
2023-04-25T16:28:23.824Z,3.08
2023-04-25T16:30:51.550Z,4.40
2023-04-25T16:33:19.302Z,3.03
2023-04-25T16:35:47.022Z,3.22
2023-04-25T16:38:14.727Z,3.22
2023-04-25T16:40:43.763Z,3.08
2023-04-25T16:43:11.425Z,4.05
2023-04-25T16:45:39.141Z,3.92
2023-04-25T16:48:07.141Z,3.83
2023-04-25T16:50:34.950Z,5.15
2023-04-25T16:53:02.647Z,5.05
2023-04-25T16:55:30.321Z,4.32
2023-04-25T16:57:59.542Z,3.90
2023-04-25T17:00:27.420Z,3.58
2023-04-25T17:02:55.299Z,4.65
2023-04-25T17:05:23.019Z,4.80
2023-04-25T17:07:50.695Z,7.28
2023-04-25T17:10:18.617Z,5.72
2023-04-25T17:12:47.487Z,4.70
2023-04-25T17:15:16.838Z,7.15
2023-04-25T17:17:44.578Z,5.72
2023-04-25T17:20:13.670Z,4.25
2023-04-25T17:22:41.632Z,4.45
2023-04-25T17:25:10.648Z,3.95
2023-04-25T17:27:38.587Z,4.68
2023-04-25T17:30:08.343Z,4.47
2023-04-25T17:32:37.409Z,6.93
2023-04-25T17:35:05.710Z,5.35
2023-04-25T17:37:33.697Z,4.43
2023-04-25T17:40:01.645Z,4.15
2023-04-25T17:42:29.536Z,4.80
2023-04-25T17:44:57.275Z,6.13
2023-04-25T17:47:25.028Z,4.65
2023-04-25T17:49:54.697Z,5.22
2023-04-25T17:52:22.353Z,6.63
2023-04-25T17:54:50.038Z,5.18
2023-04-25T17:57:17.685Z,5.35
2023-04-25T17:59:45.418Z,5.93
2023-04-25T18:02:13.209Z,4.93
2023-04-25T18:04:41.005Z,6.50
2023-04-25T18:07:10.078Z,7.85
2023-04-25T18:09:37.795Z,6.10
2023-04-25T18:12:05.990Z,6.18
2023-04-25T18:14:35.043Z,4.75
2023-04-25T18:17:04.121Z,4.60
2023-04-25T18:19:31.866Z,5.22
2023-04-25T18:21:59.529Z,4.80
2023-04-25T18:24:28.594Z,5.18
2023-04-25T18:27:00.254Z,6.05
2023-04-25T18:29:33.580Z,9.90
2023-04-25T18:32:01.964Z,2.67
2023-04-25T18:34:29.950Z,2.88
2023-04-25T18:36:57.923Z,4.15
2023-04-25T18:39:26.156Z,4.50
2023-04-25T18:42:04.361Z,7.00
2023-04-25T18:44:39.348Z,5.50
2023-04-25T18:47:07.674Z,8.82
2023-04-25T18:49:35.464Z,17.05
2023-04-25T18:52:03.518Z,8.32
2023-04-25T18:54:31.968Z,15.13
2023-04-25T18:57:01.116Z,9.82
2023-04-25T18:59:29.016Z,12.23
2023-04-25T19:01:56.901Z,14.00
2023-04-25T19:04:24.846Z,11.25
2023-04-25T19:06:54.191Z,8.10
2023-04-25T19:09:22.010Z,7.10
2023-04-25T19:11:49.668Z,10.13
2023-04-25T19:14:18.717Z,8.07
2023-04-25T19:16:46.591Z,9.77
2023-04-25T19:19:14.398Z,8.60
2023-04-25T19:21:42.618Z,8.27
2023-04-25T19:24:11.122Z,9.00
2023-04-25T19:26:38.881Z,10.77
2023-04-25T19:29:08.819Z,12.30
2023-04-25T19:31:39.125Z,16.92
2023-04-25T19:34:07.868Z,15.68
2023-04-25T19:36:37.742Z,10.65
2023-04-25T19:39:07.158Z,17.52
2023-04-25T19:41:37.025Z,18.33
2023-04-25T19:44:06.537Z,15.55
2023-04-25T19:46:37.814Z,12.25
2023-04-25T19:49:07.878Z,13.80
2023-04-25T19:51:36.274Z,12.35
2023-04-25T19:54:04.256Z,9.48
2023-04-25T19:56:32.553Z,16.08
2023-04-25T19:59:00.278Z,13.27
2023-04-25T20:01:28.411Z,12.30
2023-04-25T20:03:56.347Z,10.73
2023-04-25T20:06:26.359Z,8.98
2023-04-25T20:08:54.564Z,12.18
2023-04-25T20:11:22.525Z,18.95
2023-04-25T20:13:50.564Z,15.43
2023-04-25T20:16:20.384Z,10.52
2023-04-25T20:18:48.640Z,11.60
2023-04-25T20:21:17.593Z,8.55
2023-04-25T20:23:46.968Z,11.75
2023-04-25T20:26:14.639Z,8.75
2023-04-25T20:28:42.814Z,8.27
2023-04-25T20:31:10.895Z,8.43
2023-04-25T20:33:38.859Z,8.38
2023-04-25T20:36:06.713Z,8.57
2023-04-25T20:38:34.448Z,8.80
2023-04-25T20:41:03.699Z,8.38
2023-04-25T20:43:31.771Z,8.68
2023-04-25T20:46:00.475Z,7.72
2023-04-25T20:48:28.312Z,9.30
2023-04-25T20:50:56.295Z,9.75
2023-04-25T20:53:24.051Z,11.27
2023-04-25T20:55:51.699Z,9.35
2023-04-25T20:58:21.472Z,7.65
2023-04-25T21:00:50.635Z,8.57
2023-04-25T21:03:18.536Z,10.40
2023-04-25T21:05:46.737Z,14.10
2023-04-25T21:08:14.426Z,9.93
2023-04-25T21:10:42.163Z,10.98
2023-04-25T21:13:09.947Z,10.27
2023-04-25T21:15:39.137Z,10.73
2023-04-25T21:18:07.114Z,8.85
2023-04-25T21:20:34.939Z,7.75
2023-04-25T21:23:02.966Z,7.22
2023-04-25T21:25:31.925Z,9.82
2023-04-25T21:28:00.329Z,10.63
2023-04-25T21:30:28.261Z,11.20
2023-04-25T21:32:57.501Z,10.43
2023-04-25T21:35:25.379Z,9.77
2023-04-25T21:37:53.379Z,9.98
2023-04-25T21:40:21.131Z,9.48
2023-04-25T21:42:51.447Z,13.40
2023-04-25T21:45:19.838Z,8.02
2023-04-25T21:47:48.185Z,12.85
2023-04-25T21:50:19.451Z,9.63
2023-04-25T21:52:48.126Z,10.70
2023-04-25T21:55:16.467Z,9.15
2023-04-25T21:57:44.170Z,9.80
2023-04-25T22:00:24.301Z,8.32
2023-04-25T22:02:52.764Z,8.27
2023-04-25T22:05:22.544Z,8.75
2023-04-25T22:07:51.410Z,10.77
2023-04-25T22:10:19.639Z,12.35
2023-04-25T22:12:50.657Z,9.88
2023-04-25T22:15:19.323Z,9.35
2023-04-25T22:17:47.503Z,9.00
2023-04-25T22:20:18.523Z,9.88
2023-04-25T22:22:47.576Z,11.27
2023-04-25T22:25:15.883Z,8.82
2023-04-25T22:27:43.813Z,9.23
2023-04-25T22:30:13.789Z,9.18
2023-04-25T22:32:42.009Z,9.90
2023-04-25T22:35:11.635Z,10.13
2023-04-25T22:37:39.991Z,11.00
2023-04-25T22:40:10.098Z,12.60
2023-04-25T22:42:39.660Z,9.85
2023-04-25T22:45:08.440Z,9.95
2023-04-25T22:47:36.457Z,11.93
2023-04-25T22:50:05.753Z,9.75
2023-04-25T23:01:13.990Z,11.13
2023-04-25T23:03:41.800Z,10.27
2023-04-25T23:06:09.681Z,11.98
2023-04-25T23:08:37.637Z,12.55
2023-04-25T23:11:07.836Z,13.88
2023-04-25T23:13:36.578Z,11.48
2023-04-25T23:16:09.400Z,11.25
2023-04-25T23:18:37.323Z,13.73
2023-04-25T23:21:07.540Z,10.95
2023-04-25T23:23:35.375Z,9.75
2023-04-25T23:26:08.365Z,12.15
2023-04-25T23:28:38.727Z,11.88
2023-04-25T23:31:10.479Z,10.70
2023-04-25T23:33:38.407Z,13.27
2023-04-25T23:36:07.386Z,13.15
2023-04-25T23:38:35.015Z,15.20
2023-04-25T23:41:02.654Z,13.27
2023-04-25T23:43:30.320Z,14.30
2023-04-25T23:45:58.014Z,14.55
2023-04-25T23:48:27.200Z,15.77
2023-04-25T23:50:54.884Z,17.45
2023-04-25T23:53:22.586Z,17.23
2023-04-25T23:55:50.250Z,19.40
2023-04-25T23:58:17.900Z,20.33
